createdAt,value
2023-02-01T00:01:00.708Z,3.25
2023-02-01T00:03:27.523Z,3.55
2023-02-01T00:05:58.454Z,3.33
2023-02-01T00:08:25.125Z,3.70
2023-02-01T00:11:02.550Z,3.63
2023-02-01T00:13:30.873Z,3.22
2023-02-01T00:16:07.210Z,4.18
2023-02-01T00:18:33.984Z,3.97
2023-02-01T00:21:00.989Z,3.58
2023-02-01T00:23:28.020Z,3.85
2023-02-01T00:25:54.690Z,3.65
2023-02-01T00:28:21.260Z,3.75
2023-02-01T00:30:47.943Z,3.85
2023-02-01T00:33:14.546Z,3.80
2023-02-01T00:35:41.115Z,4.38
2023-02-01T00:38:07.698Z,3.50
2023-02-01T00:40:34.270Z,3.70
2023-02-01T00:43:00.882Z,3.92
2023-02-01T00:45:27.544Z,3.15
2023-02-01T00:47:54.123Z,3.40
2023-02-01T00:50:20.998Z,3.55
2023-02-01T00:52:47.792Z,3.85
2023-02-01T00:55:14.405Z,3.45
2023-02-01T00:57:40.952Z,3.97
2023-02-01T01:00:08.253Z,3.65
2023-02-01T01:02:34.816Z,3.58
2023-02-01T01:05:01.392Z,3.63
2023-02-01T01:07:28.853Z,3.33
2023-02-01T01:09:56.222Z,3.45
2023-02-01T01:12:22.792Z,3.30
2023-02-01T01:14:49.352Z,4.00
2023-02-01T01:17:15.914Z,3.47
2023-02-01T01:19:42.488Z,3.50
2023-02-01T01:22:09.060Z,3.80
2023-02-01T01:24:35.656Z,4.53
2023-02-01T01:27:02.204Z,3.60
2023-02-01T01:29:28.827Z,3.15
2023-02-01T01:31:55.522Z,3.65
2023-02-01T01:34:22.153Z,3.97
2023-02-01T01:36:48.717Z,4.32
2023-02-01T01:39:15.311Z,3.45
2023-02-01T01:41:41.870Z,3.38
2023-02-01T01:44:47.100Z,3.65
2023-02-01T01:47:15.434Z,3.50
2023-02-01T01:49:42.117Z,3.53
2023-02-01T01:52:08.937Z,3.80
2023-02-01T01:54:40.802Z,3.55
2023-02-01T01:57:13.542Z,3.42
2023-02-01T01:59:41.533Z,3.63
2023-02-01T02:02:08.228Z,4.10
2023-02-01T02:04:35.557Z,3.85
2023-02-01T02:07:05.741Z,3.13
2023-02-01T02:09:32.516Z,3.50
2023-02-01T02:12:00.132Z,3.65
2023-02-01T02:14:27.773Z,3.47
2023-02-01T02:17:01.148Z,3.42
2023-02-01T02:20:12.401Z,4.20
2023-02-01T02:22:40.030Z,3.45
2023-02-01T02:25:40.467Z,3.45
2023-02-01T02:28:44.274Z,3.45
2023-02-01T02:31:40.249Z,3.58
2023-02-01T02:34:27.437Z,4.13
2023-02-01T02:37:08.069Z,3.53
2023-02-01T02:39:55.801Z,3.90
2023-02-01T02:42:46.019Z,3.63
2023-02-01T02:45:41.408Z,3.25
2023-02-01T02:48:26.109Z,3.67
2023-02-01T02:51:23.707Z,3.60
2023-02-01T02:54:16.096Z,3.00
2023-02-01T02:57:01.156Z,3.47
2023-02-01T02:59:48.218Z,3.75
2023-02-01T03:02:34.872Z,2.72
2023-02-01T03:05:01.607Z,3.40
2023-02-01T03:07:49.407Z,3.35
2023-02-01T03:10:27.983Z,3.63
2023-02-01T03:12:58.052Z,3.28
2023-02-01T03:15:41.315Z,3.53
2023-02-01T03:18:33.515Z,3.47
2023-02-01T03:21:02.327Z,3.38
2023-02-01T03:23:32.587Z,2.85
2023-02-01T03:26:00.080Z,3.53
2023-02-01T03:28:29.458Z,3.20
2023-02-01T03:30:56.098Z,3.78
2023-02-01T03:33:24.766Z,3.55
2023-02-01T03:36:13.318Z,3.55
2023-02-01T03:39:00.184Z,3.40
2023-02-01T03:41:38.711Z,3.35
2023-02-01T03:44:17.493Z,3.53
2023-02-01T03:46:46.429Z,3.40
2023-02-01T03:49:17.599Z,4.40
2023-02-01T03:51:44.232Z,3.78
2023-02-01T03:54:13.453Z,3.40
2023-02-01T03:56:42.490Z,3.70
2023-02-01T03:59:09.576Z,3.53
2023-02-01T04:01:36.183Z,3.92
2023-02-01T04:04:02.897Z,3.20
2023-02-01T04:06:29.443Z,3.58
2023-02-01T04:08:56.017Z,3.25
2023-02-01T04:11:22.690Z,3.78
2023-02-01T04:13:49.260Z,3.70
2023-02-01T04:16:15.928Z,3.35
2023-02-01T04:18:42.581Z,3.47
2023-02-01T04:21:09.164Z,3.58
2023-02-01T04:23:37.233Z,3.15
2023-02-01T04:26:05.288Z,3.30
2023-02-01T04:28:32.173Z,3.25
2023-02-01T04:30:58.951Z,2.95
2023-02-01T04:33:25.580Z,3.45
2023-02-01T04:35:52.198Z,3.15
2023-02-01T04:38:19.331Z,3.85
2023-02-01T04:40:48.418Z,3.42
2023-02-01T04:43:15.027Z,3.25
2023-02-01T04:45:41.619Z,3.50
2023-02-01T04:48:08.175Z,2.83
2023-02-01T04:50:34.728Z,3.35
2023-02-01T04:53:01.344Z,3.55
2023-02-01T04:55:27.895Z,3.00
2023-02-01T04:57:54.487Z,3.05
2023-02-01T05:00:21.514Z,3.40
2023-02-01T05:02:48.244Z,3.17
2023-02-01T05:05:14.814Z,3.30
2023-02-01T05:07:41.373Z,3.63
2023-02-01T05:10:08.777Z,3.08
2023-02-01T05:12:53.859Z,3.53
2023-02-01T05:15:20.414Z,3.20
2023-02-01T05:17:46.952Z,3.05
2023-02-01T05:20:13.591Z,2.90
2023-02-01T05:22:40.162Z,2.72
2023-02-01T05:25:08.427Z,2.80
2023-02-01T05:27:35.184Z,2.65
2023-02-01T05:30:02.204Z,3.25
2023-02-01T05:32:28.838Z,3.30
2023-02-01T05:34:55.419Z,3.00
2023-02-01T05:37:22.063Z,3.33
2023-02-01T05:39:48.680Z,3.10
2023-02-01T05:42:15.235Z,3.28
2023-02-01T05:44:41.953Z,3.30
2023-02-01T05:47:08.772Z,3.38
2023-02-01T05:49:35.379Z,2.95
2023-02-01T05:52:02.070Z,3.10
2023-02-01T05:54:28.656Z,2.75
2023-02-01T05:56:55.219Z,3.20
2023-02-01T05:59:21.808Z,2.72
2023-02-01T06:01:48.379Z,3.53
2023-02-01T06:04:15.045Z,3.20
2023-02-01T06:06:41.782Z,3.40
2023-02-01T06:09:08.356Z,2.80
2023-02-01T06:11:34.929Z,3.38
2023-02-01T06:14:01.490Z,3.10
2023-02-01T06:16:28.353Z,3.47
2023-02-01T06:18:55.084Z,3.35
2023-02-01T06:21:24.856Z,3.38
2023-02-01T06:23:55.079Z,3.67
2023-02-01T06:26:21.803Z,2.83
2023-02-01T06:28:48.527Z,3.53
2023-02-01T06:31:15.293Z,3.15
2023-02-01T06:33:42.057Z,3.00
2023-02-01T06:36:11.131Z,3.22
2023-02-01T06:38:37.724Z,3.22
2023-02-01T06:41:04.943Z,3.17
2023-02-01T06:43:33.577Z,2.70
2023-02-01T06:46:02.288Z,2.90
2023-02-01T06:48:28.906Z,3.58
2023-02-01T06:50:55.621Z,2.92
2023-02-01T06:53:22.246Z,3.20
2023-02-01T06:55:59.448Z,3.88
2023-02-01T06:58:32.431Z,2.97
2023-02-01T07:00:59.658Z,3.17
2023-02-01T07:03:26.354Z,2.70
2023-02-01T07:05:56.696Z,3.22
2023-02-01T07:08:23.245Z,2.88
2023-02-01T07:10:49.983Z,3.00
2023-02-01T07:13:16.627Z,2.75
2023-02-01T07:15:43.225Z,2.90
2023-02-01T07:18:09.895Z,3.10
2023-02-01T07:20:36.510Z,2.88
2023-02-01T07:23:03.070Z,2.75
2023-02-01T07:25:29.654Z,2.70
2023-02-01T07:27:56.228Z,2.70
2023-02-01T07:30:23.097Z,3.00
2023-02-01T07:32:49.874Z,2.47
2023-02-01T07:35:16.502Z,2.80
2023-02-01T07:37:43.146Z,2.38
2023-02-01T07:40:10.534Z,2.70
2023-02-01T07:42:37.103Z,2.40
2023-02-01T07:45:19.033Z,3.20
2023-02-01T07:47:47.342Z,2.35
2023-02-01T07:50:13.944Z,3.20
2023-02-01T07:52:41.742Z,3.25
2023-02-01T07:55:08.925Z,2.88
2023-02-01T07:57:35.484Z,3.22
2023-02-01T08:00:20.958Z,2.88
2023-02-01T08:02:47.718Z,2.78
2023-02-01T08:05:14.298Z,2.70
2023-02-01T08:07:40.863Z,2.28
2023-02-01T08:10:11.708Z,2.38
2023-02-01T08:12:38.602Z,3.00
2023-02-01T08:15:05.656Z,2.78
2023-02-01T08:17:32.217Z,2.50
2023-02-01T08:19:58.794Z,2.65
2023-02-01T08:22:25.503Z,2.60
2023-02-01T08:24:52.656Z,3.22
2023-02-01T08:27:19.268Z,2.95
2023-02-01T08:29:45.874Z,2.70
2023-02-01T08:32:12.490Z,2.58
2023-02-01T08:34:39.041Z,2.63
2023-02-01T08:37:05.678Z,3.15
2023-02-01T08:39:32.244Z,2.60
2023-02-01T08:42:17.645Z,2.78
2023-02-01T08:44:44.214Z,3.28
2023-02-01T08:47:11.549Z,2.70
2023-02-01T08:49:38.122Z,3.25
2023-02-01T08:52:14.394Z,3.53
2023-02-01T08:54:42.991Z,3.38
2023-02-01T08:57:10.620Z,2.70
2023-02-01T08:59:37.192Z,2.90
2023-02-01T09:02:04.000Z,3.08
2023-02-01T09:04:30.579Z,3.20
2023-02-01T09:06:57.198Z,3.22
2023-02-01T09:09:24.181Z,2.70
2023-02-01T09:11:54.159Z,3.10
2023-02-01T09:14:20.722Z,2.45
2023-02-01T09:16:47.319Z,2.85
2023-02-01T09:19:25.914Z,2.92
2023-02-01T09:21:53.349Z,2.60
2023-02-01T09:24:20.051Z,2.67
2023-02-01T09:26:46.719Z,2.90
2023-02-01T09:29:13.388Z,2.85
2023-02-01T09:31:44.078Z,3.00
2023-02-01T09:34:13.500Z,2.65
2023-02-01T09:36:40.089Z,2.88
2023-02-01T09:39:06.654Z,2.78
2023-02-01T09:41:46.985Z,3.03
2023-02-01T09:44:49.019Z,2.80
2023-02-01T09:47:18.420Z,2.55
2023-02-01T09:50:07.405Z,3.25
2023-02-01T09:52:45.828Z,2.67
2023-02-01T09:55:42.193Z,2.85
2023-02-01T09:58:16.384Z,2.53
2023-02-01T10:00:49.082Z,2.80
2023-02-01T10:03:15.675Z,2.70
2023-02-01T10:06:11.297Z,2.75
2023-02-01T10:09:04.016Z,2.42
2023-02-01T10:11:51.909Z,2.83
2023-02-01T10:14:36.463Z,2.85
2023-02-01T10:17:02.995Z,2.20
2023-02-01T10:19:35.344Z,2.63
2023-02-01T10:22:05.328Z,2.80
2023-02-01T10:24:37.904Z,2.70
2023-02-01T10:27:26.817Z,2.40
2023-02-01T10:29:56.743Z,2.85
2023-02-01T10:32:32.713Z,2.65
2023-02-01T10:35:01.842Z,2.45
2023-02-01T10:37:34.029Z,2.60
2023-02-01T10:40:17.851Z,3.03
2023-02-01T10:45:14.711Z,2.67
2023-02-01T10:47:41.631Z,2.75
2023-02-01T10:50:28.252Z,2.50
2023-02-01T10:53:07.636Z,2.85
2023-02-01T10:55:41.430Z,2.78
2023-02-01T10:58:18.610Z,3.35
2023-02-01T11:00:54.634Z,2.80
2023-02-01T11:03:33.560Z,3.00
2023-02-01T11:06:00.915Z,2.65
2023-02-01T11:08:27.521Z,2.88
2023-02-01T11:11:02.738Z,2.50
2023-02-01T11:13:32.829Z,2.80
2023-02-01T11:15:59.737Z,3.20
2023-02-01T11:18:29.240Z,2.58
2023-02-01T11:20:56.608Z,2.92
2023-02-01T11:23:27.990Z,2.67
2023-02-01T11:25:59.421Z,1.90
2023-02-01T11:28:29.149Z,2.50
2023-02-01T11:30:57.582Z,2.33
2023-02-01T11:33:32.213Z,2.20
2023-02-01T11:36:02.035Z,2.22
2023-02-01T11:38:31.317Z,2.00
2023-02-01T11:41:13.136Z,2.08
2023-02-01T11:43:58.730Z,2.03
2023-02-01T11:46:33.246Z,1.90
2023-02-01T11:49:25.559Z,2.28
2023-02-01T11:52:00.285Z,2.28
2023-02-01T11:54:40.686Z,1.67
2023-02-01T11:57:13.199Z,1.80
2023-02-01T12:00:10.360Z,1.70
2023-02-01T12:02:55.439Z,1.90
2023-02-01T12:05:22.005Z,1.80
2023-02-01T12:08:07.307Z,1.52
2023-02-01T12:10:49.509Z,1.35
2023-02-01T12:13:27.946Z,1.83
2023-02-01T12:16:03.520Z,1.60
2023-02-01T12:18:41.174Z,1.85
2023-02-01T12:21:42.946Z,1.77
2023-02-01T12:24:46.965Z,1.88
2023-02-01T12:27:29.366Z,2.00
2023-02-01T12:30:17.037Z,2.00
2023-02-01T12:32:54.970Z,2.00
2023-02-01T12:35:24.468Z,2.15
2023-02-01T12:37:59.903Z,1.80
2023-02-01T12:40:41.898Z,2.30
2023-02-01T12:43:26.960Z,2.53
2023-02-01T12:45:58.343Z,2.17
2023-02-01T12:48:43.933Z,2.25
2023-02-01T12:51:16.862Z,2.50
2023-02-01T12:53:51.661Z,2.40
2023-02-01T12:56:27.085Z,2.70
2023-02-01T12:59:02.015Z,2.28
2023-02-01T13:01:42.061Z,2.47
2023-02-01T13:04:14.590Z,2.33
2023-02-01T13:06:46.630Z,2.55
2023-02-01T13:09:25.958Z,2.65
2023-02-01T13:11:55.470Z,2.33
2023-02-01T13:14:54.319Z,2.33
2023-02-01T13:17:33.292Z,2.42
2023-02-01T13:20:23.038Z,2.92
2023-02-01T13:22:54.682Z,2.22
2023-02-01T13:25:41.119Z,2.72
2023-02-01T13:28:13.773Z,2.38
2023-02-01T13:31:18.408Z,2.17
2023-02-01T13:34:14.974Z,2.67
2023-02-01T13:36:50.226Z,3.00
2023-02-01T13:39:37.833Z,2.47
2023-02-01T13:42:42.579Z,3.08
2023-02-01T13:45:22.735Z,2.75
2023-02-01T13:47:54.123Z,3.20
2023-02-01T13:50:24.883Z,2.88
2023-02-01T13:53:08.678Z,2.92
2023-02-01T13:58:37.249Z,3.00
2023-02-01T14:01:33.836Z,2.78
2023-02-01T14:04:06.444Z,3.03
2023-02-01T14:06:33.750Z,2.80
2023-02-01T14:09:09.123Z,2.58
2023-02-01T14:11:45.993Z,3.28
2023-02-01T14:14:18.440Z,2.78
2023-02-01T14:17:10.677Z,2.97
2023-02-01T14:19:38.002Z,2.95
2023-02-01T14:22:25.131Z,3.13
2023-02-01T14:24:55.132Z,3.53
2023-02-01T14:27:24.280Z,2.75
2023-02-01T14:30:00.552Z,3.17
2023-02-01T14:32:39.369Z,3.17
2023-02-01T14:35:25.629Z,3.25
2023-02-01T14:37:54.638Z,3.08
2023-02-01T14:40:24.794Z,2.67
2023-02-01T14:42:53.496Z,3.47
2023-02-01T14:45:20.534Z,3.13
2023-02-01T14:48:05.966Z,3.25
2023-02-01T14:50:38.499Z,3.05
2023-02-01T14:53:13.437Z,2.93
2023-02-01T14:55:39.973Z,3.45
2023-02-01T14:58:17.112Z,2.72
2023-02-01T15:00:50.522Z,3.65
2023-02-01T15:03:27.139Z,3.40
2023-02-01T15:05:58.707Z,2.65
2023-02-01T15:08:29.932Z,2.90
2023-02-01T15:10:57.986Z,2.90
2023-02-01T15:13:26.419Z,3.22
2023-02-01T15:16:16.556Z,2.80
2023-02-01T15:18:43.116Z,3.20
2023-02-01T15:21:46.881Z,2.50
2023-02-01T15:24:39.892Z,3.15
2023-02-01T15:27:07.631Z,3.08
2023-02-01T15:29:35.017Z,2.90
2023-02-01T15:32:01.972Z,3.20
2023-02-01T15:34:49.084Z,2.72
2023-02-01T15:37:17.194Z,3.03
2023-02-01T15:40:19.868Z,3.17
2023-02-01T15:42:52.173Z,3.38
2023-02-01T15:45:20.457Z,3.10
2023-02-01T15:47:51.154Z,2.80
2023-02-01T15:50:22.316Z,3.10
2023-02-01T15:52:51.360Z,3.10
2023-02-01T15:55:40.336Z,2.80
2023-02-01T15:58:18.363Z,2.50
2023-02-01T16:00:51.238Z,3.17
2023-02-01T16:03:28.766Z,2.70
2023-02-01T16:05:58.350Z,3.10
2023-02-01T16:08:27.032Z,3.15
2023-02-01T16:11:03.146Z,2.90
2023-02-01T16:13:29.730Z,3.22
2023-02-01T16:15:56.328Z,3.25
2023-02-01T16:18:22.917Z,3.00
2023-02-01T16:20:49.519Z,3.13
2023-02-01T16:23:16.231Z,2.83
2023-02-01T16:25:42.984Z,3.25
2023-02-01T16:28:09.665Z,2.92
2023-02-01T16:30:36.646Z,3.10
2023-02-01T16:33:03.650Z,2.88
2023-02-01T16:35:38.604Z,3.30
2023-02-01T16:38:19.423Z,3.13
2023-02-01T16:40:46.884Z,3.08
2023-02-01T16:43:22.025Z,3.00
2023-02-01T16:45:49.881Z,2.90
2023-02-01T16:48:28.050Z,2.75
2023-02-01T16:51:01.150Z,2.80
2023-02-01T16:53:30.915Z,2.90
2023-02-01T16:56:00.941Z,3.05
2023-02-01T16:58:28.054Z,2.95
2023-02-01T17:00:55.211Z,3.22
2023-02-01T17:03:22.499Z,2.92
2023-02-01T17:05:54.491Z,3.00
2023-02-01T17:08:35.094Z,2.83
2023-02-01T17:11:02.625Z,2.70
2023-02-01T17:13:29.408Z,3.00
2023-02-01T17:15:59.826Z,2.53
2023-02-01T17:18:31.549Z,2.80
2023-02-01T17:20:59.079Z,2.90
2023-02-01T17:23:26.162Z,2.80
2023-02-01T17:25:53.592Z,2.95
2023-02-01T17:28:20.469Z,3.13
2023-02-01T17:30:47.352Z,2.80
2023-02-01T17:33:39.925Z,2.63
2023-02-01T17:36:07.116Z,2.25
2023-02-01T17:38:35.257Z,3.05
2023-02-01T17:41:01.826Z,2.83
2023-02-01T17:43:28.423Z,2.42
2023-02-01T17:46:13.241Z,2.75
2023-02-01T17:48:40.522Z,2.60
2023-02-01T17:51:15.582Z,2.72
2023-02-01T17:53:42.149Z,2.97
2023-02-01T17:56:13.916Z,2.95
2023-02-01T17:58:40.483Z,2.40
2023-02-01T18:01:09.442Z,2.65
2023-02-01T18:03:36.813Z,2.33
2023-02-01T18:06:04.171Z,2.72
2023-02-01T18:08:33.689Z,2.92
2023-02-01T18:11:01.777Z,2.40
2023-02-01T18:13:32.117Z,2.67
2023-02-01T18:16:03.644Z,2.50
2023-02-01T18:18:33.383Z,2.45
2023-02-01T18:21:00.214Z,2.35
2023-02-01T18:23:26.819Z,2.35
2023-02-01T18:25:53.421Z,2.22
2023-02-01T18:28:20.588Z,1.95
2023-02-01T18:30:49.154Z,2.22
2023-02-01T18:33:17.574Z,2.70
2023-02-01T18:35:44.485Z,2.30
2023-02-01T18:38:11.324Z,2.30
2023-02-01T18:40:49.238Z,2.45
2023-02-01T18:43:15.908Z,2.30
2023-02-01T18:45:47.428Z,2.50
2023-02-01T18:48:15.638Z,2.22
2023-02-01T18:50:44.450Z,2.20
2023-02-01T18:53:14.754Z,1.88
2023-02-01T18:55:41.331Z,2.72
2023-02-01T18:58:08.132Z,2.45
2023-02-01T19:00:35.784Z,2.05
2023-02-01T19:03:02.918Z,2.17
2023-02-01T19:05:30.589Z,2.28
2023-02-01T19:07:57.156Z,2.60
2023-02-01T19:10:24.358Z,2.65
2023-02-01T19:12:52.195Z,2.83
2023-02-01T19:15:19.290Z,2.28
2023-02-01T19:17:48.088Z,2.30
2023-02-01T19:20:17.866Z,2.47
2023-02-01T19:22:45.032Z,2.70
2023-02-01T19:25:15.744Z,2.38
2023-02-01T19:27:42.426Z,2.35
2023-02-01T19:30:12.648Z,2.30
2023-02-01T19:32:40.089Z,2.15
2023-02-01T19:35:08.320Z,2.25
2023-02-01T19:37:34.865Z,2.22
2023-02-01T19:40:01.422Z,2.22
2023-02-01T19:42:28.335Z,2.00
2023-02-01T19:44:54.989Z,2.08
2023-02-01T19:47:21.542Z,2.00
2023-02-01T19:49:48.093Z,2.60
2023-02-01T19:52:14.678Z,2.00
2023-02-01T19:54:41.289Z,2.95
2023-02-01T19:57:08.415Z,2.17
2023-02-01T19:59:34.972Z,2.15
2023-02-01T20:02:00.711Z,2.50
2023-02-01T20:04:27.253Z,2.50
2023-02-01T20:06:54.978Z,2.70
2023-02-01T20:09:28.110Z,2.25
2023-02-01T20:11:54.728Z,2.03
2023-02-01T20:14:22.583Z,2.40
2023-02-01T20:16:49.204Z,2.25
2023-02-01T20:19:16.328Z,2.30
2023-02-01T20:21:42.958Z,2.15
2023-02-01T20:24:12.907Z,2.30
2023-02-01T20:26:40.433Z,2.28
2023-02-01T20:29:07.225Z,2.20
2023-02-01T20:31:33.990Z,1.85
2023-02-01T20:34:01.293Z,2.55
2023-02-01T20:36:31.061Z,2.50
2023-02-01T20:38:58.301Z,1.98
2023-02-01T20:41:25.922Z,2.47
2023-02-01T20:43:52.800Z,2.33
2023-02-01T20:46:19.660Z,2.33
2023-02-01T20:48:48.193Z,2.30
2023-02-01T20:51:16.743Z,2.10
2023-02-01T20:53:43.639Z,2.35
2023-02-01T20:56:12.806Z,2.50
2023-02-01T20:58:39.833Z,2.00
2023-02-01T21:01:06.744Z,2.20
2023-02-01T21:03:35.108Z,1.95
2023-02-01T21:06:02.712Z,2.28
2023-02-01T21:08:29.788Z,1.90
2023-02-01T21:11:10.788Z,2.20
2023-02-01T21:13:42.977Z,2.20
2023-02-01T21:16:13.360Z,2.60
2023-02-01T21:18:40.514Z,2.90
2023-02-01T21:21:10.192Z,2.25
2023-02-01T21:23:45.035Z,2.33
2023-02-01T21:26:17.643Z,2.10
2023-02-01T21:28:44.840Z,2.43
2023-02-01T21:31:12.452Z,2.45
2023-02-01T21:33:39.493Z,2.30
2023-02-01T21:36:07.138Z,1.98
2023-02-01T21:38:34.332Z,2.20
2023-02-01T21:41:19.508Z,1.80
2023-02-01T21:43:46.113Z,2.17
2023-02-01T21:46:12.835Z,2.10
2023-02-01T21:49:04.485Z,2.75
2023-02-01T21:51:28.372Z,1.90
2023-02-01T21:53:55.188Z,2.17
2023-02-01T21:56:21.824Z,2.55
2023-02-01T21:58:48.404Z,2.25
2023-02-01T22:01:15.117Z,1.92
2023-02-01T22:03:41.720Z,1.77
2023-02-01T22:06:08.391Z,2.28
2023-02-01T22:08:37.501Z,2.25
2023-02-01T22:11:05.121Z,2.58
2023-02-01T22:13:31.726Z,2.30
2023-02-01T22:15:58.589Z,2.33
2023-02-01T22:18:25.146Z,1.65
2023-02-01T22:20:58.814Z,2.22
2023-02-01T22:23:27.812Z,2.40
2023-02-01T22:26:01.617Z,1.83
2023-02-01T22:28:32.115Z,2.20
2023-02-01T22:31:02.091Z,2.28
2023-02-01T22:33:28.817Z,2.22
2023-02-01T22:35:55.417Z,2.28
2023-02-01T22:38:22.486Z,2.15
2023-02-01T22:40:58.874Z,1.90
2023-02-01T22:43:25.746Z,2.53
2023-02-01T22:45:52.934Z,1.90
2023-02-01T22:48:19.735Z,2.45
2023-02-01T22:50:46.572Z,1.83
2023-02-01T22:53:13.209Z,2.20
2023-02-01T22:55:42.266Z,2.00
2023-02-01T22:58:08.852Z,2.05
2023-02-01T23:00:35.510Z,2.22
2023-02-01T23:03:02.123Z,2.10
2023-02-01T23:05:28.721Z,1.90
2023-02-01T23:07:55.320Z,2.13
2023-02-01T23:10:22.343Z,1.80
2023-02-01T23:12:49.397Z,2.15
2023-02-01T23:15:17.336Z,1.98
2023-02-01T23:17:44.781Z,2.17
2023-02-01T23:20:17.357Z,2.42
2023-02-01T23:22:45.035Z,2.60
2023-02-01T23:25:12.784Z,2.25
2023-02-01T23:27:39.864Z,1.67
2023-02-01T23:30:08.032Z,2.17
2023-02-01T23:32:35.520Z,2.17
2023-02-01T23:35:03.334Z,1.98
2023-02-01T23:37:29.873Z,1.85
2023-02-01T23:39:56.453Z,1.88
2023-02-01T23:42:23.087Z,2.25
2023-02-01T23:44:49.647Z,2.15
2023-02-01T23:47:16.336Z,2.60
2023-02-01T23:49:42.929Z,2.30
2023-02-01T23:52:10.371Z,1.90
2023-02-01T23:54:37.035Z,2.38
2023-02-01T23:57:03.630Z,1.90
2023-02-01T23:59:30.676Z,1.95
